METAR AND TAF INFORMATION
METAR FOR KORD
ADDS - METARS form results

(2309 UTC 22 May 2018)
Data provider http://aviationweather.gov/adds/metars/
 
METAR text: KORD 222251Z 11005KT 10SM OVC031 18/13 A3004 RMK AO2 SLP173 T01780128
Conditions at: KORD (CHICAGO O'HARE , IL, US) observed 2251 UTC 22 May 2018
Temperature: 17.8°C (64°F)
Dewpoint: 12.8°C (55°F) [RH = 73%]
Pressure (altimeter): 30.04 inches Hg (1017.4 mb)
[Sea-level pressure: 1017.3 mb]
Winds: from the ESE (110 degrees) at 6 MPH (5 knots; 2.6 m/s)
Visibility: 10 or more miles (16+ km)
Ceiling: 3100 feet AGL
Clouds: overcast cloud deck at 3100 feet AGL
Weather: no significant weather observed at this time

Forecast for: KORD (CHICAGO O'HARE , IL, US)
Text: KORD 222111Z 2221/2324 09006KT P6SM BKN035
Forecast period: 2100 UTC 22 May 2018 to 0500 UTC 23 May 2018
Forecast type: FROM: standard forecast or significant change
Winds: from the E (90 degrees) at 7 MPH (6 knots; 3.1 m/s)
Visibility: 6 or more miles (10+ km)
Ceiling: 3500 feet AGL
Clouds: broken clouds at 3500 feet AGL
Weather: no significant weather forecast for this period
Forecast for: KORD (CHICAGO O'HARE , IL, US)
Text: KORD 222111Z 2221/2324 09006KT P6SM BKN035
Forecast period: 2100 UTC 22 May 2018 to 0500 UTC 23 May 2018
Forecast type: FROM: standard forecast or significant change
Winds: from the E (90 degrees) at 7 MPH (6 knots; 3.1 m/s)
Visibility: 6 or more miles (10+ km)
Ceiling: 3500 feet AGL
Clouds: broken clouds at 3500 feet AGL
Weather: no significant weather forecast for this period
Forecast for: KORD (CHICAGO O'HARE , IL, US)
Text: KORD 222111Z 2221/2324 09006KT P6SM BKN035
Forecast period: 0500 to 1400 UTC 23 May 2018
Forecast type: FROM: standard forecast or significant change
Winds: variable direction winds at 2 MPH (2 knots; 1.0 m/s)
Visibility: 3 miles (5 km)
Ceiling: 800 feet AGL
Clouds: scattered clouds at 300 feet AGL
broken clouds at 800 feet AGL
overcast cloud deck at 1200 feet AGL
Weather: BR  (mist)
Forecast for: KORD (CHICAGO O'HARE , IL, US)
Text: KORD 222111Z 2221/2324 09006KT P6SM BKN035
Forecast period: 0500 to 1400 UTC 23 May 2018
Forecast type: FROM: standard forecast or significant change
Winds: variable direction winds at 2 MPH (2 knots; 1.0 m/s)
Visibility: 3 miles (5 km)
Ceiling: 800 feet AGL
Clouds: scattered clouds at 300 feet AGL
broken clouds at 800 feet AGL
overcast cloud deck at 1200 feet AGL
Weather: BR  (mist)
Forecast for: KORD (CHICAGO O'HARE , IL, US)
Text: KORD 222111Z 2221/2324 09006KT P6SM BKN035
Forecast period: 0900 to 1200 UTC 23 May 2018
Forecast type: TEMPORARY: The following changes expected for less than half the time period
Visibility: 1.50 miles (2.41 km)
Ceiling: 600 feet AGL
Clouds: overcast cloud deck at 600 feet AGL
Weather: BR  (mist)
Forecast for: KORD (CHICAGO O'HARE , IL, US)
Text: KORD 222111Z 2221/2324 09006KT P6SM BKN035
Forecast period: 0900 to 1200 UTC 23 May 2018
Forecast type: TEMPORARY: The following changes expected for less than half the time period
Visibility: 1.50 miles (2.41 km)
Ceiling: 600 feet AGL
Clouds: overcast cloud deck at 600 feet AGL
Weather: BR  (mist)
Forecast for: KORD (CHICAGO O'HARE , IL, US)
Text: KORD 222111Z 2221/2324 09006KT P6SM BKN035
Forecast period: 1400 to 1900 UTC 23 May 2018
Forecast type: FROM: standard forecast or significant change
Winds: variable direction winds at 3 MPH (3 knots; 1.6 m/s)
Visibility: 6 or more miles (10+ km)
Clouds: few clouds at 25000 feet AGL
Weather: no significant weather forecast for this period
Forecast for: KORD (CHICAGO O'HARE , IL, US)
Text: KORD 222111Z 2221/2324 09006KT P6SM BKN035
Forecast period: 1400 to 1900 UTC 23 May 2018
Forecast type: FROM: standard forecast or significant change
Winds: variable direction winds at 3 MPH (3 knots; 1.6 m/s)
Visibility: 6 or more miles (10+ km)
Clouds: few clouds at 25000 feet AGL
Weather: no significant weather forecast for this period
Forecast for: KORD (CHICAGO O'HARE , IL, US)
Text: KORD 222111Z 2221/2324 09006KT P6SM BKN035
Forecast period: 1900 UTC 23 May 2018 to 0000 UTC 24 May 2018
Forecast type: FROM: standard forecast or significant change
Winds: from the E (80 degrees) at 9 MPH (8 knots; 4.2 m/s)
Visibility: 6 or more miles (10+ km)
Clouds: scattered clouds at 20000 feet AGL
Weather: no significant weather forecast for this period
Forecast for: KORD (CHICAGO O'HARE , IL, US)
Text: KORD 222111Z 2221/2324 09006KT P6SM BKN035
Forecast period: 1900 UTC 23 May 2018 to 0000 UTC 24 May 2018
Forecast type: FROM: standard forecast or significant change
Winds: from the E (80 degrees) at 9 MPH (8 knots; 4.2 m/s)
Visibility: 6 or more miles (10+ km)
Clouds: scattered clouds at 20000 feet AGL
Weather: no significant weather forecast for this period

 AIRPORT MAP

 RUNWAY INFORMATION
Runway 04L Runway length 7500 ft Runway width 150 ft
Runway elevation 656 ft Runway displaced threshold 0 ft Runway heading 39
Runway 22R Runway length 7500 ft Runway width 150 ft
Runway elevation 648 ft Runway displaced threshold 0 ft Runway heading 219
Runway 04R Runway length 8075 ft Runway width 150 ft
Runway elevation 661 ft Runway displaced threshold 0 ft Runway heading 42
Runway 22L Runway length 8075 ft Runway width 150 ft
Runway elevation 651 ft Runway displaced threshold 0 ft Runway heading 222
Runway 09L Runway length 7967 ft Runway width 150 ft
Runway elevation 668 ft Runway displaced threshold 0 ft Runway heading 90
Runway 27R Runway length 7967 ft Runway width 150 ft
Runway elevation 664 ft Runway displaced threshold 0 ft Runway heading 270
Runway 09R Runway length 10144 ft Runway width 150 ft
Runway elevation 660 ft Runway displaced threshold 0 ft Runway heading 90
Runway 27L Runway length 10144 ft Runway width 150 ft
Runway elevation 650 ft Runway displaced threshold 0 ft Runway heading 270
Runway 10C Runway length 10801 ft Runway width 200 ft
Runway elevation 669 ft Runway displaced threshold 0 ft Runway heading 90
Runway 28C Runway length 10801 ft Runway width 200 ft
Runway elevation 650 ft Runway displaced threshold 0 ft Runway heading 270
Runway 10L Runway length 13000 ft Runway width 150 ft
Runway elevation 672 ft Runway displaced threshold 0 ft Runway heading 90
Runway 28R Runway length 13000 ft Runway width 150 ft
Runway elevation 651 ft Runway displaced threshold 0 ft Runway heading 270
Runway 14L Runway length 10005 ft Runway width 150 ft
Runway elevation 653 ft Runway displaced threshold 0 ft Runway heading 140
Runway 32R Runway length 10005 ft Runway width 150 ft
Runway elevation 648 ft Runway displaced threshold 0 ft Runway heading 320
Runway 14R Runway length 13000 ft Runway width 200 ft
Runway elevation 666 ft Runway displaced threshold 0 ft Runway heading 140
Runway 32L Runway length 13000 ft Runway width 200 ft
Runway elevation 654 ft Runway displaced threshold 0 ft Runway heading 320
Runway 18 Runway length 5332 ft Runway width 150 ft
Runway elevation 646 ft Runway displaced threshold 0 ft Runway heading 180
Runway 36 Runway length 5332 ft Runway width 150 ft
Runway elevation 653 ft Runway displaced threshold 0 ft Runway heading 360

 AIRPORT FREQUENCIES
Type APP Name APP Frequency 119 MHZ
Type ASOS Name ASOS Frequency 135.4 MHZ
Type ATIS Name ATIS Frequency 135.4 MHZ
Type CLD Name CLNC DEL Frequency 121.6 MHZ
Type DEP Name DEP Frequency 125 MHZ
Type GND Name GND Frequency 121.675 MHZ
Type PTD Name PTD Frequency 126.2 MHZ
Type TWR Name TWR Frequency 126.9 MHZ
Type UNIC Name UNICOM Frequency 122.95 MHZ

 AIRPORT NEAR NAVIGATION AIDS
Type NDB Name Taffs Frequency 414 KHZ
Type NDB Name Inddy Frequency 385 KHZ
Type NDB Name Deana Frequency 350 KHZ
Type NDB Name Leama Frequency 368 KHZ
Type NDB Name Chstr Frequency 394 KHZ
Type VOR-DME Name Chicago O'Hare Frequency 113900 KHZ



Powered by Virtual Airlines Manager [v2.6.2]